Time;durP1;ratioP1;P1;durP2;ratioP2;P2;SDS_P1;SDS_P2;PMS_P1;PMS_P2;Temp;Humidity;BMP_temperature;BMP_pressure;BME280_temperature;BME280_humidity;BME280_pressure;Samples;Min_cycle;Max_cycle;Signal;HPM_P1;HPM_P2
2023/04/25 00:01:35;;;;;;;6.40;2.70;;;9.80;99.90;;;;;;5009897;28;20236;-73
2023/04/25 00:04:02;;;;;;;5.68;3.25;;;9.80;99.90;;;;;;4993260;28;20183;-73
2023/04/25 00:06:29;;;;;;;7.80;3.42;;;9.80;99.90;;;;;;5011045;28;20177;-73
2023/04/25 00:08:56;;;;;;;5.43;3.35;;;9.80;99.90;;;;;;5010711;28;20212;-73
2023/04/25 00:11:22;;;;;;;4.47;2.85;;;9.80;99.90;;;;;;5009672;28;20185;-73
2023/04/25 00:13:49;;;;;;;9.90;3.85;;;9.80;99.90;;;;;;5010712;28;20648;-73
2023/04/25 00:16:15;;;;;;;6.20;3.10;;;9.90;99.90;;;;;;5010930;28;20185;-74
2023/04/25 00:18:42;;;;;;;6.30;2.90;;;9.80;99.90;;;;;;5009787;28;20194;-73
2023/04/25 00:21:08;;;;;;;5.50;2.50;;;9.90;99.90;;;;;;5005953;28;20590;-73
2023/04/25 00:23:36;;;;;;;9.15;4.05;;;9.80;99.90;;;;;;5010696;28;20182;-73
2023/04/25 00:26:02;;;;;;;5.90;2.70;;;9.80;99.90;;;;;;5009118;28;20256;-73
2023/04/25 00:28:28;;;;;;;4.20;2.60;;;9.80;99.90;;;;;;5012164;28;20206;-74
2023/04/25 00:30:53;;;;;;;8.77;2.80;;;9.70;99.90;;;;;;4980959;28;20178;-73
2023/04/25 00:33:19;;;;;;;4.97;3.07;;;9.70;99.90;;;;;;5014948;28;20181;-73
2023/04/25 00:35:45;;;;;;;7.40;3.33;;;9.70;99.90;;;;;;5013126;28;20170;-73
2023/04/25 00:38:10;;;;;;;6.53;2.53;;;9.60;99.90;;;;;;5013311;28;20174;-74
2023/04/25 00:40:36;;;;;;;8.60;3.60;;;9.60;99.90;;;;;;5013700;28;20257;-73
2023/04/25 00:43:02;;;;;;;6.37;2.40;;;9.50;99.90;;;;;;4996487;28;20252;-74
2023/04/25 00:45:32;;;;;;;7.67;3.40;;;9.50;99.90;;;;;;4997206;28;20213;-74
2023/04/25 00:47:58;;;;;;;8.75;4.22;;;9.40;99.90;;;;;;4996930;28;20187;-73
2023/04/25 00:50:24;;;;;;;4.80;3.90;;;9.40;99.90;;;;;;5012867;28;20182;-73
2023/04/25 00:52:50;;;;;;;9.27;4.00;;;9.30;99.90;;;;;;5000045;28;20205;-73
2023/04/25 00:55:16;;;;;;;6.10;2.95;;;9.30;99.90;;;;;;5014477;28;20593;-73
2023/04/25 00:57:42;;;;;;;10.93;3.40;;;9.20;99.90;;;;;;5013669;28;20771;-73
2023/04/25 01:00:10;;;;;;;4.93;2.70;;;9.20;99.90;;;;;;5014310;28;20605;-73
2023/04/25 01:02:37;;;;;;;6.97;2.88;;;9.10;99.90;;;;;;5012094;28;20182;-73
2023/04/25 01:05:23;;;;;;;5.45;3.25;;;9.10;99.90;;;;;;5006365;28;20180;-73
2023/04/25 01:07:49;;;;;;;13.25;4.07;;;9.00;99.90;;;;;;5004221;28;20168;-73
2023/04/25 01:10:15;;;;;;;4.17;3.03;;;9.00;99.90;;;;;;5013582;28;20689;-73
2023/04/25 01:12:41;;;;;;;6.20;2.92;;;8.90;99.90;;;;;;5002434;28;20600;-73
2023/04/25 01:15:07;;;;;;;5.72;3.50;;;8.90;99.90;;;;;;4995409;28;20681;-73
2023/04/25 01:17:34;;;;;;;5.97;3.93;;;8.80;99.90;;;;;;5012002;28;20185;-73
2023/04/25 01:20:04;;;;;;;7.70;3.15;;;8.80;99.90;;;;;;5012314;28;20617;-73
2023/04/25 01:22:30;;;;;;;6.30;2.80;;;8.80;99.90;;;;;;5012371;28;20174;-73
2023/04/25 01:24:56;;;;;;;8.10;3.05;;;8.70;99.90;;;;;;5012579;28;20263;-73
2023/04/25 01:27:22;;;;;;;8.48;3.75;;;8.70;99.90;;;;;;4995762;28;20181;-73
2023/04/25 01:29:50;;;;;;;9.40;5.78;;;8.60;99.90;;;;;;5012704;28;20253;-74
2023/04/25 01:32:16;;;;;;;4.88;3.15;;;8.60;99.90;;;;;;4995484;28;20193;-73
2023/04/25 01:34:42;;;;;;;12.07;3.83;;;8.60;99.90;;;;;;4996164;28;20198;-73
2023/04/25 01:37:08;;;;;;;6.53;2.50;;;8.50;99.90;;;;;;5011925;28;20182;-73
2023/04/25 01:39:33;;;;;;;8.07;3.23;;;8.50;99.90;;;;;;5011373;28;21199;-73
2023/04/25 01:42:00;;;;;;;6.10;2.93;;;8.50;99.90;;;;;;5012177;28;20177;-73
2023/04/25 01:44:25;;;;;;;8.38;2.72;;;8.40;99.90;;;;;;5012375;28;20744;-73
2023/04/25 01:46:52;;;;;;;11.80;3.67;;;8.40;99.90;;;;;;5011980;28;20237;-73
2023/04/25 01:49:17;;;;;;;11.13;3.00;;;8.40;99.90;;;;;;5012028;28;20261;-73
2023/04/25 01:51:44;;;;;;;5.78;2.80;;;8.40;99.90;;;;;;4995885;28;20269;-74
2023/04/25 01:54:11;;;;;;;6.90;3.25;;;8.40;99.90;;;;;;4995445;28;20206;-73
2023/04/25 01:56:38;;;;;;;6.25;3.28;;;8.30;99.90;;;;;;5012056;28;20273;-73
2023/04/25 01:59:05;;;;;;;5.68;2.80;;;8.30;99.90;;;;;;4995233;28;20190;-73
2023/04/25 02:01:50;;;;;;;5.25;2.80;;;8.30;99.90;;;;;;4995721;28;20201;-73
2023/04/25 02:04:24;;;;;;;8.50;3.00;;;8.30;99.90;;;;;;4995288;28;20526;-73
2023/04/25 02:06:50;;;;;;;7.95;3.83;;;8.20;99.90;;;;;;4995413;28;20182;-73
2023/04/25 02:09:16;;;;;;;6.20;2.83;;;8.20;99.90;;;;;;5012574;28;20202;-73
2023/04/25 02:11:50;;;;;;;4.45;2.35;;;8.20;99.90;;;;;;5003133;28;20585;-73
2023/04/25 02:14:26;;;;;;;9.13;3.25;;;8.20;99.90;;;;;;5017434;28;20204;-73
2023/04/25 02:17:02;;;;;;;7.68;3.13;;;8.20;99.90;;;;;;5025726;28;20177;-73
2023/04/25 02:19:30;;;;;;;9.32;3.20;;;8.20;99.90;;;;;;5008235;28;20205;-73
2023/04/25 02:21:56;;;;;;;5.47;2.40;;;8.10;99.90;;;;;;5026549;28;20179;-74
2023/04/25 02:24:22;;;;;;;5.47;2.50;;;8.10;99.90;;;;;;5011610;28;20579;-73
2023/04/25 02:26:49;;;;;;;11.87;2.57;;;8.10;99.90;;;;;;4994634;28;20175;-73
2023/04/25 02:29:15;;;;;;;6.47;2.90;;;8.10;99.90;;;;;;4995192;28;21219;-73
2023/04/25 02:31:42;;;;;;;10.48;2.70;;;8.20;99.90;;;;;;5011017;28;20213;-74
2023/04/25 02:34:07;;;;;;;5.72;2.67;;;8.20;99.90;;;;;;4995185;28;20198;-73
2023/04/25 02:36:35;;;;;;;5.45;2.83;;;8.30;99.90;;;;;;4978753;28;20206;-73
2023/04/25 02:39:02;;;;;;;4.47;2.73;;;8.30;99.90;;;;;;5011387;28;20705;-73
2023/04/25 02:41:28;;;;;;;5.53;2.75;;;8.40;99.90;;;;;;5010848;28;20174;-73
2023/04/25 02:43:55;;;;;;;5.47;2.05;;;8.40;99.90;;;;;;5011239;28;20186;-73
2023/04/25 02:46:20;;;;;;;4.40;2.73;;;8.40;99.90;;;;;;5011220;28;20630;-73
2023/04/25 02:48:46;;;;;;;6.63;2.40;;;8.50;99.90;;;;;;4994545;28;20692;-73
2023/04/25 02:51:12;;;;;;;5.30;3.20;;;8.50;99.90;;;;;;5010781;28;20224;-74
2023/04/25 02:53:38;;;;;;;5.82;2.47;;;8.50;99.90;;;;;;4994476;28;20661;-73
2023/04/25 02:56:04;;;;;;;6.67;2.50;;;8.60;99.90;;;;;;4994663;28;20182;-73
2023/04/25 02:58:30;;;;;;;5.45;2.28;;;8.60;99.90;;;;;;4994389;28;20296;-73
2023/04/25 03:00:56;;;;;;;5.13;2.93;;;8.70;99.90;;;;;;4994666;28;20265;-73
2023/04/25 03:03:22;;;;;;;5.10;2.27;;;8.70;99.90;;;;;;5011998;28;20201;-73
2023/04/25 03:05:50;;;;;;;8.90;2.70;;;8.70;99.90;;;;;;5010574;28;20182;-73
2023/04/25 03:08:18;;;;;;;4.45;2.40;;;8.80;99.90;;;;;;5010754;28;20200;-73
2023/04/25 03:10:45;;;;;;;4.50;2.40;;;8.80;99.90;;;;;;5010545;28;20212;-73
2023/04/25 03:13:11;;;;;;;7.47;2.63;;;8.80;99.90;;;;;;5038041;22;20672;-75
2023/04/25 03:15:38;;;;;;;5.70;3.53;;;8.90;99.90;;;;;;5024654;28;20224;-75
2023/04/25 03:18:06;;;;;;;8.18;3.05;;;8.90;99.90;;;;;;5031257;28;20207;-75
2023/04/25 03:20:32;;;;;;;6.65;2.65;;;8.90;99.90;;;;;;5029669;28;20591;-75
2023/04/25 03:22:58;;;;;;;4.50;2.40;;;8.90;99.90;;;;;;5030076;28;20193;-75
2023/04/25 03:25:23;;;;;;;3.57;2.20;;;8.90;99.90;;;;;;5013428;28;20617;-76
2023/04/25 03:27:49;;;;;;;7.47;2.53;;;8.90;99.90;;;;;;5013649;28;20252;-76
2023/04/25 03:30:15;;;;;;;4.10;2.40;;;9.00;99.90;;;;;;5013888;28;20178;-76
2023/04/25 03:32:42;;;;;;;7.35;3.30;;;9.00;99.90;;;;;;5013401;28;20232;-76
2023/04/25 03:35:08;;;;;;;8.13;2.53;;;9.00;99.90;;;;;;5030378;28;20233;-76
2023/04/25 03:37:34;;;;;;;8.77;4.20;;;9.00;99.90;;;;;;5017177;28;20288;-75
2023/04/25 03:40:01;;;;;;;9.57;3.15;;;9.00;99.90;;;;;;5030121;28;20687;-75
2023/04/25 03:42:43;;;;;;;7.88;2.78;;;9.10;99.90;;;;;;5029537;28;20533;-74
2023/04/25 03:45:08;;;;;;;14.33;3.73;;;9.10;99.90;;;;;;5013681;28;20173;-76
2023/04/25 03:47:34;;;;;;;6.27;3.50;;;9.10;99.90;;;;;;5012791;28;20192;-74
2023/04/25 03:50:01;;;;;;;7.90;3.40;;;9.10;99.90;;;;;;5029756;28;20576;-75
2023/04/25 03:52:28;;;;;;;5.95;3.47;;;9.10;99.90;;;;;;5029212;28;20651;-74
2023/04/25 03:54:53;;;;;;;6.37;2.43;;;9.20;99.90;;;;;;5029688;28;20204;-75
2023/04/25 03:57:21;;;;;;;7.85;2.85;;;9.20;99.90;;;;;;5029472;28;20182;-73
2023/04/25 03:59:47;;;;;;;8.50;3.33;;;9.20;99.90;;;;;;5030728;28;20610;-74
2023/04/25 04:02:14;;;;;;;4.95;2.80;;;9.20;99.90;;;;;;5012614;28;20201;-75
2023/04/25 04:04:40;;;;;;;8.02;3.30;;;9.20;99.90;;;;;;5012446;28;20235;-76
2023/04/25 04:07:06;;;;;;;7.83;3.17;;;9.20;99.90;;;;;;5013163;28;20178;-76
2023/04/25 04:09:36;;;;;;;4.57;3.20;;;9.20;99.90;;;;;;5029382;28;20181;-76
2023/04/25 04:12:07;;;;;;;6.57;2.90;;;9.30;99.90;;;;;;5029407;28;20194;-76
2023/04/25 04:14:33;;;;;;;9.15;3.42;;;9.30;99.90;;;;;;5037401;28;20224;-75
2023/04/25 04:16:59;;;;;;;7.23;2.53;;;9.30;99.90;;;;;;5015198;28;20173;-76
2023/04/25 04:19:26;;;;;;;5.20;2.65;;;9.30;99.90;;;;;;5012872;28;21161;-75
2023/04/25 04:22:02;;;;;;;4.55;3.30;;;9.30;99.90;;;;;;5031109;28;20246;-77
2023/04/25 04:24:28;;;;;;;8.83;3.20;;;9.30;99.90;;;;;;5031829;28;20182;-78
2023/04/25 04:27:03;;;;;;;8.68;3.90;;;9.30;99.90;;;;;;5052506;28;20180;-78
2023/04/25 04:29:36;;;;;;;7.93;2.88;;;9.40;99.90;;;;;;5049234;28;20176;-77
2023/04/25 04:32:15;;;;;;;10.32;3.00;;;9.40;99.90;;;;;;5050110;28;20189;-78
2023/04/25 04:34:41;;;;;;;7.82;3.08;;;9.40;99.90;;;;;;5050823;28;20197;-78
2023/04/25 04:37:08;;;;;;;7.55;2.95;;;9.40;99.90;;;;;;5049322;28;20257;-78
2023/04/25 04:39:35;;;;;;;7.00;3.28;;;9.40;99.90;;;;;;5050375;28;20173;-78
2023/04/25 04:42:08;;;;;;;6.50;2.15;;;9.40;99.90;;;;;;5029040;28;20200;-77
2023/04/25 04:45:03;;;;;;;8.00;2.80;;;9.40;99.90;;;;;;4988499;28;20863;-77
2023/04/25 04:47:58;;;;;;;3.97;2.22;;;9.50;99.90;;;;;;4987169;28;20205;-78
2023/04/25 04:50:45;;;;;;;11.95;2.90;;;9.50;99.90;;;;;;5046767;28;20174;-77
2023/04/25 04:53:16;;;;;;;8.48;2.80;;;9.50;99.90;;;;;;5026932;28;20215;-78
2023/04/25 04:56:13;;;;;;;9.52;3.30;;;9.50;99.90;;;;;;5022614;28;20177;-78
2023/04/25 04:58:44;;;;;;;8.43;3.30;;;9.50;99.90;;;;;;5040506;28;20224;-78
2023/04/25 05:01:22;;;;;;;8.48;3.83;;;9.60;99.90;;;;;;5037102;28;20181;-78
2023/04/25 05:04:03;;;;;;;6.47;3.55;;;9.60;99.90;;;;;;5036656;28;20193;-78
2023/04/25 05:06:48;;;;;;;5.72;2.70;;;9.60;99.90;;;;;;5037043;28;20170;-78
2023/04/25 05:09:15;;;;;;;7.97;4.03;;;9.60;99.90;;;;;;5037981;28;20174;-79
2023/04/25 05:12:05;;;;;;;6.55;3.55;;;9.70;99.90;;;;;;5016924;28;20198;-78
2023/04/25 05:14:57;;;;;;;10.10;3.97;;;9.70;99.90;;;;;;5031453;28;20231;-78
2023/04/25 05:17:53;;;;;;;7.47;3.10;;;9.80;99.90;;;;;;5041968;28;20241;-79
2023/04/25 05:20:37;;;;;;;7.95;2.85;;;9.80;99.90;;;;;;5041317;28;20181;-78
2023/04/25 05:23:21;;;;;;;11.73;3.78;;;9.80;99.90;;;;;;5042869;28;20193;-78
2023/04/25 05:25:59;;;;;;;6.35;3.40;;;9.90;99.90;;;;;;5037138;28;20189;-79
2023/04/25 05:28:46;;;;;;;7.43;2.88;;;10.00;99.90;;;;;;5042527;28;20231;-78
2023/04/25 05:31:29;;;;;;;10.57;3.92;;;10.00;99.90;;;;;;5028261;28;20531;-78
2023/04/25 05:34:00;;;;;;;10.05;3.65;;;10.10;99.90;;;;;;5037665;28;20213;-78
2023/04/25 05:36:38;;;;;;;5.50;3.28;;;10.10;99.90;;;;;;5053381;28;20157;-78
2023/04/25 05:39:04;;;;;;;8.03;3.47;;;10.20;99.90;;;;;;5052797;28;20165;-79
2023/04/25 05:41:48;;;;;;;7.85;3.50;;;10.30;99.90;;;;;;5055786;28;20233;-80
2023/04/25 05:44:38;;;;;;;10.02;2.63;;;10.40;99.90;;;;;;5042507;28;20213;-80
2023/04/25 05:47:33;;;;;;;6.10;3.22;;;10.50;99.90;;;;;;5033589;28;20193;-79
2023/04/25 05:50:19;;;;;;;12.52;3.40;;;10.60;99.90;;;;;;5051985;28;20205;-78
2023/04/25 05:52:53;;;;;;;9.60;3.55;;;10.80;99.90;;;;;;5041097;28;20197;-78
2023/04/25 05:55:24;;;;;;;13.40;3.90;;;10.90;99.90;;;;;;5043389;28;20205;-77
2023/04/25 05:57:50;;;;;;;8.52;3.65;;;11.00;99.90;;;;;;5025655;28;20557;-77
2023/04/25 06:00:18;;;;;;;5.60;2.78;;;11.20;99.90;;;;;;5026391;28;20178;-77
2023/04/25 06:02:48;;;;;;;5.57;2.35;;;11.30;99.90;;;;;;5050289;28;20186;-77
2023/04/25 06:05:14;;;;;;;5.90;2.65;;;11.40;99.90;;;;;;5050296;28;20165;-77
2023/04/25 06:07:40;;;;;;;9.80;3.20;;;11.50;99.90;;;;;;5018166;28;20241;-78
2023/04/25 06:10:07;;;;;;;9.40;3.80;;;11.50;99.90;;;;;;5034633;28;20177;-78
2023/04/25 06:12:33;;;;;;;8.35;3.22;;;11.70;99.90;;;;;;5044195;28;20212;-78
2023/04/25 06:15:00;;;;;;;8.68;2.90;;;11.70;99.90;;;;;;5028199;28;20201;-78
2023/04/25 06:17:26;;;;;;;11.40;3.28;;;11.80;99.90;;;;;;5031292;28;20174;-78
2023/04/25 06:19:55;;;;;;;5.20;2.53;;;11.90;99.90;;;;;;5050819;28;20181;-79
2023/04/25 06:22:20;;;;;;;7.23;2.90;;;12.10;99.90;;;;;;5050320;28;20198;-79
2023/04/25 06:24:46;;;;;;;7.43;2.50;;;12.40;99.90;;;;;;5054345;28;20170;-78
2023/04/25 06:27:12;;;;;;;8.63;2.70;;;12.70;99.90;;;;;;5032083;28;20173;-75
2023/04/25 06:29:38;;;;;;;10.95;3.10;;;12.80;99.90;;;;;;5053683;28;20177;-78
2023/04/25 06:32:04;;;;;;;12.00;4.27;;;12.90;99.90;;;;;;5055131;28;20205;-79
2023/04/25 06:34:31;;;;;;;8.73;2.40;;;12.90;99.90;;;;;;5045862;28;20205;-78
2023/04/25 06:36:57;;;;;;;7.35;2.67;;;12.90;99.90;;;;;;5029127;28;20177;-78
2023/04/25 06:39:24;;;;;;;6.87;3.10;;;12.90;99.90;;;;;;5047038;28;20162;-80
2023/04/25 06:41:50;;;;;;;7.45;3.00;;;13.00;99.90;;;;;;5022649;28;20577;-80
2023/04/25 06:44:39;;;;;;;10.80;2.80;;;13.10;99.90;;;;;;5040241;28;20188;-79
2023/04/25 06:47:07;;;;;;;8.45;2.92;;;13.30;99.90;;;;;;5035862;28;20670;-75
2023/04/25 06:49:33;;;;;;;11.70;2.70;;;13.40;99.90;;;;;;5051138;28;20251;-75
2023/04/25 06:51:59;;;;;;;8.17;2.20;;;13.80;99.90;;;;;;5033631;28;20606;-75
2023/04/25 06:54:26;;;;;;;7.37;2.40;;;14.50;99.90;;;;;;5052155;28;20718;-75
2023/04/25 06:57:00;;;;;;;8.40;1.97;;;15.30;99.90;;;;;;5033806;28;20670;-74
2023/04/25 06:59:27;;;;;;;6.60;3.70;;;16.00;99.90;;;;;;5034121;28;20588;-74
2023/04/25 07:01:53;;;;;;;6.07;2.10;;;16.80;99.90;;;;;;5050686;28;21183;-74
2023/04/25 07:04:24;;;;;;;9.43;2.07;;;17.20;99.90;;;;;;5036547;28;20236;-75
2023/04/25 07:06:54;;;;;;;6.13;2.27;;;17.50;99.90;;;;;;5030627;28;20638;-75
2023/04/25 07:09:27;;;;;;;7.03;1.97;;;17.40;99.90;;;;;;5030417;28;20639;-75
2023/04/25 07:11:53;;;;;;;5.63;2.00;;;17.40;99.90;;;;;;5030516;28;20933;-75
2023/04/25 07:14:20;;;;;;;6.60;1.70;;;17.60;99.90;;;;;;5029909;28;20624;-75
2023/04/25 07:16:46;;;;;;;5.30;1.80;;;18.00;99.90;;;;;;5030469;28;20580;-74
2023/04/25 07:19:12;;;;;;;6.77;1.87;;;18.20;99.90;;;;;;5030222;28;20627;-74
2023/04/25 07:21:38;;;;;;;5.47;2.03;;;18.30;99.90;;;;;;5030329;28;20937;-75
2023/04/25 07:24:05;;;;;;;5.57;1.60;;;18.30;99.90;;;;;;5030296;28;20723;-74
2023/04/25 07:26:35;;;;;;;10.27;1.93;;;18.30;99.90;;;;;;5029724;28;20654;-75
2023/04/25 07:29:14;;;;;;;9.93;2.13;;;18.30;99.90;;;;;;5014075;28;20944;-74
2023/04/25 07:31:40;;;;;;;6.93;2.00;;;18.30;99.90;;;;;;5013269;28;20610;-74
2023/04/25 07:34:06;;;;;;;5.30;1.80;;;18.20;99.90;;;;;;5013762;28;20209;-74
2023/04/25 07:36:32;;;;;;;7.67;1.30;;;18.10;99.90;;;;;;5013059;28;20308;-74
2023/04/25 07:38:58;;;;;;;8.73;2.67;;;18.10;99.90;;;;;;5030746;28;20580;-74
2023/04/25 07:41:24;;;;;;;6.10;1.23;;;18.10;99.90;;;;;;5029589;28;20181;-75
2023/04/25 07:43:49;;;;;;;7.40;2.40;;;18.20;99.90;;;;;;4997389;28;20639;-74
2023/04/25 07:46:16;;;;;;;7.17;2.80;;;18.30;99.90;;;;;;5029855;28;20169;-74
2023/04/25 07:48:42;;;;;;;6.27;2.07;;;18.20;99.90;;;;;;5013150;28;20619;-74
2023/04/25 07:51:08;;;;;;;5.03;2.03;;;18.10;99.90;;;;;;5029976;28;20186;-74
2023/04/25 07:53:37;;;;;;;8.60;2.00;;;18.00;99.90;;;;;;5029632;28;20224;-74
2023/04/25 07:56:06;;;;;;;5.77;2.00;;;18.10;99.90;;;;;;5013205;28;20627;-74
2023/04/25 07:58:35;;;;;;;5.53;1.93;;;18.20;99.90;;;;;;5029655;28;20576;-74
2023/04/25 08:01:04;;;;;;;6.73;2.10;;;18.40;99.90;;;;;;5029697;28;20699;-76
2023/04/25 08:03:43;;;;;;;6.80;1.93;;;18.70;99.90;;;;;;5030130;28;20608;-74
2023/04/25 08:06:15;;;;;;;5.30;1.90;;;19.00;99.90;;;;;;5029711;28;21020;-74
2023/04/25 08:08:54;;;;;;;9.10;1.90;;;19.40;99.90;;;;;;5012973;28;20926;-74
2023/04/25 08:11:23;;;;;;;6.80;1.90;;;19.70;99.90;;;;;;5013134;28;20595;-74
2023/04/25 08:13:50;;;;;;;7.80;1.47;;;19.90;99.90;;;;;;5012989;28;20659;-74
2023/04/25 08:16:16;;;;;;;8.07;1.50;;;20.00;99.90;;;;;;5012374;28;20937;-74
2023/04/25 08:18:42;;;;;;;5.70;1.47;;;20.10;99.90;;;;;;5029786;28;20630;-73
2023/04/25 08:21:11;;;;;;;6.10;1.70;;;20.10;99.90;;;;;;5012513;28;20585;-74
2023/04/25 08:23:38;;;;;;;8.30;2.07;;;20.10;99.90;;;;;;5029548;28;21069;-74
2023/04/25 08:26:10;;;;;;;4.57;1.47;;;20.10;99.90;;;;;;5029137;28;21239;-74
2023/04/25 08:28:38;;;;;;;4.93;1.40;;;20.10;99.90;;;;;;5013186;28;20588;-74
2023/04/25 08:31:04;;;;;;;4.67;1.37;;;20.20;99.90;;;;;;5012779;28;20581;-73
2023/04/25 08:33:38;;;;;;;4.97;1.40;;;20.30;99.40;;;;;;5029776;28;20616;-74
2023/04/25 08:36:20;;;;;;;6.20;1.30;;;20.60;99.40;;;;;;5029294;28;20591;-74
2023/04/25 08:38:45;;;;;;;3.33;0.93;;;21.00;99.90;;;;;;5029201;28;21144;-75
2023/04/25 08:41:13;;;;;;;6.33;1.40;;;21.40;99.40;;;;;;5012682;28;20196;-74
2023/04/25 08:43:43;;;;;;;6.30;1.50;;;21.70;98.60;;;;;;5030180;28;20603;-74
2023/04/25 08:46:11;;;;;;;5.70;1.50;;;22.00;96.70;;;;;;5029139;28;20584;-74
2023/04/25 08:48:53;;;;;;;3.93;1.17;;;22.00;96.20;;;;;;5012975;28;20572;-74
2023/04/25 08:51:24;;;;;;;4.73;1.30;;;22.00;95.30;;;;;;5033229;28;20932;-75
2023/04/25 08:53:52;;;;;;;5.07;1.20;;;21.90;93.60;;;;;;5032705;28;20647;-75
2023/04/25 08:56:22;;;;;;;3.90;1.10;;;21.80;92.90;;;;;;5016212;28;20612;-75
2023/04/25 08:58:50;;;;;;;4.03;1.20;;;21.50;92.80;;;;;;5032500;28;20667;-75
2023/04/25 09:01:18;;;;;;;5.57;1.47;;;21.30;92.50;;;;;;5033032;28;20589;-74
2023/04/25 09:03:49;;;;;;;6.23;1.30;;;21.00;91.50;;;;;;5016466;28;20604;-74
2023/04/25 09:06:16;;;;;;;3.87;1.20;;;20.60;90.20;;;;;;5032463;28;20581;-74
2023/04/25 09:08:42;;;;;;;7.17;1.50;;;20.10;89.90;;;;;;5016473;28;20580;-73
2023/04/25 09:11:08;;;;;;;5.53;1.47;;;19.60;87.50;;;;;;5016187;28;20594;-74
2023/04/25 09:13:34;;;;;;;5.20;1.60;;;19.10;85.80;;;;;;5021381;28;20729;-74
2023/04/25 09:16:21;;;;;;;6.20;1.10;;;18.60;87.80;;;;;;5044363;28;20260;-73
2023/04/25 09:19:35;;;;;;;5.77;1.40;;;18.10;87.80;;;;;;5049514;28;20583;-73
2023/04/25 09:22:03;;;;;;;4.40;1.30;;;17.60;86.40;;;;;;5027733;28;20573;-74
2023/04/25 09:24:35;;;;;;;4.93;1.20;;;17.30;88.10;;;;;;5047272;28;20599;-74
2023/04/25 09:27:06;;;;;;;2.73;1.10;;;16.90;88.60;;;;;;5032301;28;20931;-76
2023/04/25 09:29:34;;;;;;;5.77;1.50;;;16.60;89.00;;;;;;5032712;28;20580;-76
2023/04/25 09:32:19;;;;;;;7.00;1.90;;;16.40;89.50;;;;;;5015498;28;20591;-76
2023/04/25 09:34:52;;;;;;;5.97;1.10;;;16.20;89.20;;;;;;5032373;28;20611;-76
2023/04/25 09:37:25;;;;;;;3.30;0.90;;;16.20;90.50;;;;;;5032063;28;20592;-75
2023/04/25 09:40:13;;;;;;;4.30;1.10;;;16.20;90.90;;;;;;5033593;28;20599;-76
2023/04/25 09:42:50;;;;;;;4.00;1.40;;;16.20;90.50;;;;;;5015356;28;20607;-74
2023/04/25 09:45:17;;;;;;;4.27;1.57;;;16.10;91.00;;;;;;5015965;28;20611;-75
2023/04/25 09:47:44;;;;;;;5.27;1.53;;;16.00;90.60;;;;;;5015763;28;20630;-74
2023/04/25 09:50:16;;;;;;;7.03;1.10;;;16.00;90.50;;;;;;5015514;28;20675;-75
2023/04/25 09:52:45;;;;;;;3.70;1.37;;;15.80;90.00;;;;;;5031707;28;20657;-75
2023/04/25 09:55:16;;;;;;;6.93;1.50;;;15.70;90.70;;;;;;5031508;28;20690;-75
2023/04/25 09:57:50;;;;;;;5.20;1.57;;;15.60;90.60;;;;;;5031996;28;20584;-75
2023/04/25 10:00:17;;;;;;;5.67;1.33;;;15.70;91.40;;;;;;5014939;28;20592;-74
2023/04/25 10:02:48;;;;;;;7.03;1.50;;;15.70;91.50;;;;;;5032927;28;20608;-76
2023/04/25 10:05:36;;;;;;;3.97;1.07;;;15.70;91.10;;;;;;5001561;28;21060;-77
2023/04/25 10:08:06;;;;;;;4.50;1.20;;;15.70;91.30;;;;;;5032642;28;20584;-77
2023/04/25 10:10:35;;;;;;;4.10;1.40;;;15.60;91.10;;;;;;5031538;28;20638;-77
2023/04/25 10:13:03;;;;;;;5.17;1.37;;;15.50;90.90;;;;;;5048716;23;20687;-81
2023/04/25 10:15:29;;;;;;;3.67;1.20;;;15.30;90.40;;;;;;5043012;28;20648;-81
2023/04/25 10:17:56;;;;;;;5.43;1.30;;;15.10;90.50;;;;;;5036964;28;20592;-82
2023/04/25 10:20:23;;;;;;;5.60;1.40;;;15.00;90.60;;;;;;5018260;28;20612;-80
2023/04/25 10:22:53;;;;;;;7.83;3.03;;;14.80;90.40;;;;;;5036569;28;21257;-80
2023/04/25 10:25:19;;;;;;;3.80;1.83;;;14.70;90.70;;;;;;5038373;28;20925;-79
2023/04/25 10:27:45;;;;;;;7.83;1.70;;;14.60;90.90;;;;;;5043857;28;20580;-80
2023/04/25 10:30:14;;;;;;;6.60;2.07;;;14.60;91.30;;;;;;5039661;28;20592;-82
2023/04/25 10:32:42;;;;;;;5.25;1.38;;;14.50;91.20;;;;;;5032605;28;20652;-82
2023/04/25 10:35:16;;;;;;;5.10;1.03;;;14.60;91.80;;;;;;5041806;28;20189;-81
2023/04/25 10:38:04;;;;;;;4.80;1.13;;;14.60;91.70;;;;;;5056963;28;20583;-82
2023/04/25 10:40:31;;;;;;;6.77;1.50;;;14.90;92.90;;;;;;5036091;28;20656;-82
2023/04/25 10:43:33;;;;;;;6.40;1.37;;;15.40;95.10;;;;;;5052264;28;20664;-82
2023/04/25 10:46:02;;;;;;;5.70;1.30;;;15.90;93.60;;;;;;5055777;28;20575;-82
2023/04/25 10:48:31;;;;;;;4.07;0.97;;;16.40;94.20;;;;;;5039100;28;20951;-82
2023/04/25 10:51:10;;;;;;;5.03;1.40;;;16.70;93.40;;;;;;5040016;28;20642;-83
2023/04/25 10:53:37;;;;;;;6.50;1.77;;;16.70;91.30;;;;;;5038545;28;20595;-83
2023/04/25 10:56:17;;;;;;;3.67;1.07;;;16.70;91.90;;;;;;5034800;28;20604;-83
2023/04/25 10:58:45;;;;;;;6.50;1.10;;;16.50;88.00;;;;;;5039092;28;20599;-82
2023/04/25 11:01:12;;;;;;;5.83;1.97;;;16.30;90.00;;;;;;5037798;28;20625;-82
2023/04/25 11:03:42;;;;;;;3.40;0.90;;;16.00;89.00;;;;;;5034175;28;20658;-82
2023/04/25 11:06:22;;;;;;;5.73;1.03;;;15.80;89.10;;;;;;5019880;28;20634;-80
2023/04/25 11:08:50;;;;;;;3.00;1.07;;;15.50;87.10;;;;;;5026850;28;20573;-80
2023/04/25 11:11:17;;;;;;;3.50;1.13;;;15.30;88.90;;;;;;5038375;28;20608;-81
2023/04/25 11:13:44;;;;;;;3.87;0.90;;;15.10;88.90;;;;;;5030853;28;20719;-83
2023/04/25 11:16:10;;;;;;;5.60;1.00;;;15.00;88.80;;;;;;5030254;28;20627;-81
2023/04/25 11:18:38;;;;;;;3.00;1.20;;;14.90;88.90;;;;;;5031366;28;20596;-80
2023/04/25 11:21:04;;;;;;;2.67;0.80;;;14.80;88.80;;;;;;5032216;28;20687;-81
2023/04/25 11:23:31;;;;;;;2.13;0.70;;;14.70;89.30;;;;;;5013612;28;20719;-81
2023/04/25 11:25:57;;;;;;;4.33;1.13;;;14.80;90.20;;;;;;5031834;28;20615;-80
2023/04/25 11:28:23;;;;;;;6.03;1.50;;;14.80;90.40;;;;;;5030549;28;20628;-81
2023/04/25 11:30:50;;;;;;;7.20;1.77;;;14.90;90.30;;;;;;5033879;28;20597;-79
2023/04/25 11:33:16;;;;;;;5.83;1.50;;;15.00;90.10;;;;;;5033083;28;21010;-78
2023/04/25 11:35:43;;;;;;;5.23;1.30;;;15.10;90.60;;;;;;5030671;28;20813;-78
2023/04/25 11:38:08;;;;;;;3.13;0.90;;;15.30;90.90;;;;;;5031555;28;20638;-82
2023/04/25 11:40:35;;;;;;;4.70;1.10;;;15.50;91.70;;;;;;5030982;28;20651;-82
2023/04/25 11:43:02;;;;;;;2.90;1.10;;;15.90;93.40;;;;;;5031398;28;20276;-81
2023/04/25 11:45:30;;;;;;;4.60;1.20;;;16.30;93.00;;;;;;5013207;28;20775;-80
2023/04/25 11:47:56;;;;;;;3.80;1.07;;;16.60;91.30;;;;;;5029974;28;20589;-80
2023/04/25 11:50:22;;;;;;;3.60;0.80;;;16.90;90.70;;;;;;5029535;28;20606;-80
2023/04/25 11:52:48;;;;;;;5.40;0.90;;;17.00;86.10;;;;;;5030018;28;20193;-80
2023/04/25 11:55:19;;;;;;;2.87;0.80;;;17.10;88.20;;;;;;5029563;28;20209;-81
2023/04/25 11:57:48;;;;;;;3.90;1.00;;;17.20;87.40;;;;;;5031009;28;20638;-80
2023/04/25 12:00:16;;;;;;;4.03;0.80;;;17.40;88.50;;;;;;5030610;28;20584;-80
2023/04/25 12:02:45;;;;;;;2.33;0.90;;;17.60;90.10;;;;;;5029378;28;20616;-80
2023/04/25 12:05:13;;;;;;;2.67;0.77;;;18.00;90.00;;;;;;5031234;28;20986;-80
2023/04/25 12:07:38;;;;;;;4.57;0.80;;;18.30;90.20;;;;;;5015742;28;20581;-80
2023/04/25 12:10:07;;;;;;;3.10;0.80;;;18.50;87.30;;;;;;5031257;28;20806;-80
2023/04/25 12:12:37;;;;;;;3.30;0.70;;;18.70;87.50;;;;;;5030193;28;20626;-80
2023/04/25 12:15:25;;;;;;;2.03;0.70;;;18.90;87.60;;;;;;5026265;28;20946;-80
2023/04/25 12:17:52;;;;;;;3.57;1.40;;;19.10;78.10;;;;;;5012636;28;20678;-81
2023/04/25 12:20:20;;;;;;;2.83;0.90;;;19.40;80.50;;;;;;5029864;28;20576;-81
2023/04/25 12:22:48;;;;;;;2.63;0.70;;;19.50;78.20;;;;;;5030350;28;20678;-81
2023/04/25 12:25:38;;;;;;;4.50;1.00;;;19.60;75.90;;;;;;5033778;28;20568;-81
2023/04/25 12:28:19;;;;;;;3.13;1.00;;;19.50;74.60;;;;;;5035361;28;20607;-81
2023/04/25 12:31:08;;;;;;;3.00;0.90;;;19.60;69.90;;;;;;5034886;28;20635;-80
2023/04/25 12:33:37;;;;;;;2.40;0.90;;;19.40;65.80;;;;;;5034889;28;20612;-80
2023/04/25 12:36:08;;;;;;;1.80;0.90;;;19.40;67.10;;;;;;5033024;28;21637;-80
2023/04/25 12:38:40;;;;;;;2.83;1.00;;;19.10;66.20;;;;;;5033663;28;20590;-80
2023/04/25 12:41:06;;;;;;;4.60;0.90;;;18.80;65.10;;;;;;5034252;28;20715;-80
2023/04/25 12:43:31;;;;;;;3.23;0.90;;;18.60;65.50;;;;;;5044538;28;20964;-80
2023/04/25 12:45:57;;;;;;;3.43;0.80;;;18.30;65.10;;;;;;5036521;28;20584;-80
2023/04/25 12:48:23;;;;;;;2.33;0.87;;;18.00;64.60;;;;;;5029913;28;20175;-79
2023/04/25 12:50:51;;;;;;;2.80;0.80;;;17.90;66.50;;;;;;5013168;28;20662;-79
2023/04/25 12:53:22;;;;;;;2.03;0.70;;;17.70;65.60;;;;;;5014808;28;20647;-79
2023/04/25 12:55:48;;;;;;;1.70;0.70;;;17.50;65.30;;;;;;5014676;28;20691;-81
2023/04/25 12:58:15;;;;;;;2.70;0.90;;;17.30;66.30;;;;;;5016322;28;20588;-80
2023/04/25 13:00:41;;;;;;;4.93;1.20;;;17.10;65.70;;;;;;5035826;28;20579;-80
2023/04/25 13:03:08;;;;;;;3.83;1.00;;;16.90;64.20;;;;;;5019993;28;20620;-80
2023/04/25 13:05:34;;;;;;;5.63;1.00;;;16.70;65.90;;;;;;5036494;28;20629;-80